sensor_id;sensor_type;location;lat;lon;timestamp;P1;durP1;ratioP1;P2;durP2;ratioP2
43118;SDS011;28729;49.838;8.650;2023-05-10T00:02:50;3.00;;;1.05;;
43118;SDS011;28729;49.838;8.650;2023-05-10T00:06:51;2.10;;;0.75;;
43118;SDS011;28729;49.838;8.650;2023-05-10T00:10:54;0.97;;;0.60;;
43118;SDS011;28729;49.838;8.650;2023-05-10T00:14:55;5.75;;;0.80;;
43118;SDS011;28729;49.838;8.650;2023-05-10T00:18:57;1.63;;;0.80;;
43118;SDS011;28729;49.838;8.650;2023-05-10T00:22:59;3.33;;;0.90;;
43118;SDS011;28729;49.838;8.650;2023-05-10T00:32:20;6.15;;;1.90;;
43118;SDS011;28729;49.838;8.650;2023-05-10T00:47:42;5.28;;;2.55;;
43118;SDS011;28729;49.838;8.650;2023-05-10T00:52:01;6.25;;;2.20;;
43118;SDS011;28729;49.838;8.650;2023-05-10T00:56:06;3.63;;;2.03;;
43118;SDS011;28729;49.838;8.650;2023-05-10T01:00:09;6.75;;;2.20;;
43118;SDS011;28729;49.838;8.650;2023-05-10T01:04:19;4.93;;;2.28;;
43118;SDS011;28729;49.838;8.650;2023-05-10T01:08:46;4.32;;;2.25;;
43118;SDS011;28729;49.838;8.650;2023-05-10T01:12:57;8.95;;;2.90;;
43118;SDS011;28729;49.838;8.650;2023-05-10T01:21:43;8.32;;;3.25;;
43118;SDS011;28729;49.838;8.650;2023-05-10T01:35:15;7.18;;;3.00;;
43118;SDS011;28729;49.838;8.650;2023-05-10T01:39:24;5.15;;;3.17;;
43118;SDS011;28729;49.838;8.650;2023-05-10T01:43:32;9.18;;;3.30;;
43118;SDS011;28729;49.838;8.650;2023-05-10T01:47:44;7.60;;;3.53;;
43118;SDS011;28729;49.838;8.650;2023-05-10T01:51:52;7.15;;;3.85;;
43118;SDS011;28729;49.838;8.650;2023-05-10T01:55:59;10.05;;;4.03;;
43118;SDS011;28729;49.838;8.650;2023-05-10T02:00:03;6.82;;;3.83;;
43118;SDS011;28729;49.838;8.650;2023-05-10T02:04:15;9.75;;;4.22;;
43118;SDS011;28729;49.838;8.650;2023-05-10T02:08:19;8.68;;;3.75;;
43118;SDS011;28729;49.838;8.650;2023-05-10T02:12:23;7.80;;;3.85;;
43118;SDS011;28729;49.838;8.650;2023-05-10T02:16:26;9.10;;;3.97;;
43118;SDS011;28729;49.838;8.650;2023-05-10T02:20:33;9.50;;;4.32;;
43118;SDS011;28729;49.838;8.650;2023-05-10T02:28:39;11.82;;;4.68;;
43118;SDS011;28729;49.838;8.650;2023-05-10T02:36:44;7.93;;;4.38;;
43118;SDS011;28729;49.838;8.650;2023-05-10T02:40:46;8.02;;;3.95;;
43118;SDS011;28729;49.838;8.650;2023-05-10T02:44:50;11.30;;;4.35;;
43118;SDS011;28729;49.838;8.650;2023-05-10T02:48:56;9.52;;;4.22;;
43118;SDS011;28729;49.838;8.650;2023-05-10T02:53:01;9.73;;;4.45;;
43118;SDS011;28729;49.838;8.650;2023-05-10T02:57:14;9.60;;;4.72;;
43118;SDS011;28729;49.838;8.650;2023-05-10T03:01:20;9.45;;;4.93;;
43118;SDS011;28729;49.838;8.650;2023-05-10T03:05:22;10.17;;;4.90;;
43118;SDS011;28729;49.838;8.650;2023-05-10T03:09:34;9.13;;;4.78;;
43118;SDS011;28729;49.838;8.650;2023-05-10T03:13:39;8.48;;;5.20;;
43118;SDS011;28729;49.838;8.650;2023-05-10T03:17:55;9.13;;;4.70;;
43118;SDS011;28729;49.838;8.650;2023-05-10T03:22:03;8.15;;;4.30;;
43118;SDS011;28729;49.838;8.650;2023-05-10T03:26:11;10.70;;;5.13;;
43118;SDS011;28729;49.838;8.650;2023-05-10T03:30:27;8.27;;;5.05;;
43118;SDS011;28729;49.838;8.650;2023-05-10T03:34:29;10.27;;;4.85;;
43118;SDS011;28729;49.838;8.650;2023-05-10T03:38:33;10.30;;;5.28;;
43118;SDS011;28729;49.838;8.650;2023-05-10T03:42:35;12.55;;;4.80;;
43118;SDS011;28729;49.838;8.650;2023-05-10T03:46:37;11.73;;;4.30;;
43118;SDS011;28729;49.838;8.650;2023-05-10T03:50:39;7.50;;;4.53;;
43118;SDS011;28729;49.838;8.650;2023-05-10T03:54:41;11.17;;;4.63;;
43118;SDS011;28729;49.838;8.650;2023-05-10T03:58:43;7.28;;;4.10;;
43118;SDS011;28729;49.838;8.650;2023-05-10T04:02:45;8.80;;;4.20;;
43118;SDS011;28729;49.838;8.650;2023-05-10T04:06:52;7.90;;;4.45;;
43118;SDS011;28729;49.838;8.650;2023-05-10T04:20:05;8.30;;;4.70;;
43118;SDS011;28729;49.838;8.650;2023-05-10T04:24:08;10.35;;;4.95;;
43118;SDS011;28729;49.838;8.650;2023-05-10T04:28:09;9.13;;;5.32;;
43118;SDS011;28729;49.838;8.650;2023-05-10T04:32:11;11.20;;;5.65;;
43118;SDS011;28729;49.838;8.650;2023-05-10T04:36:14;10.63;;;5.60;;
43118;SDS011;28729;49.838;8.650;2023-05-10T04:40:17;10.23;;;6.00;;
43118;SDS011;28729;49.838;8.650;2023-05-10T04:44:19;8.68;;;5.78;;
43118;SDS011;28729;49.838;8.650;2023-05-10T04:48:22;9.30;;;5.32;;
43118;SDS011;28729;49.838;8.650;2023-05-10T04:52:23;9.57;;;5.22;;
43118;SDS011;28729;49.838;8.650;2023-05-10T05:01:55;11.85;;;5.82;;
43118;SDS011;28729;49.838;8.650;2023-05-10T05:06:18;13.18;;;5.70;;
43118;SDS011;28729;49.838;8.650;2023-05-10T05:10:22;8.32;;;4.78;;
43118;SDS011;28729;49.838;8.650;2023-05-10T05:14:25;8.52;;;5.30;;
43118;SDS011;28729;49.838;8.650;2023-05-10T05:18:29;8.30;;;4.90;;
43118;SDS011;28729;49.838;8.650;2023-05-10T05:22:31;11.07;;;5.00;;
43118;SDS011;28729;49.838;8.650;2023-05-10T05:26:33;7.40;;;4.57;;
43118;SDS011;28729;49.838;8.650;2023-05-10T05:30:35;8.45;;;4.70;;
43118;SDS011;28729;49.838;8.650;2023-05-10T05:34:37;7.47;;;4.47;;
43118;SDS011;28729;49.838;8.650;2023-05-10T05:38:38;13.23;;;4.95;;
43118;SDS011;28729;49.838;8.650;2023-05-10T05:42:40;9.30;;;4.53;;
43118;SDS011;28729;49.838;8.650;2023-05-10T05:46:42;9.18;;;4.93;;
43118;SDS011;28729;49.838;8.650;2023-05-10T05:50:44;7.80;;;4.85;;
43118;SDS011;28729;49.838;8.650;2023-05-10T05:54:47;12.40;;;4.75;;
43118;SDS011;28729;49.838;8.650;2023-05-10T05:58:48;10.32;;;4.57;;
43118;SDS011;28729;49.838;8.650;2023-05-10T06:02:51;6.78;;;3.80;;
43118;SDS011;28729;49.838;8.650;2023-05-10T06:06:52;8.10;;;4.60;;
43118;SDS011;28729;49.838;8.650;2023-05-10T06:10:54;7.72;;;3.85;;
43118;SDS011;28729;49.838;8.650;2023-05-10T06:14:56;8.10;;;4.70;;
43118;SDS011;28729;49.838;8.650;2023-05-10T06:18:57;10.50;;;4.53;;
43118;SDS011;28729;49.838;8.650;2023-05-10T06:22:59;5.70;;;3.78;;
43118;SDS011;28729;49.838;8.650;2023-05-10T06:27:01;7.80;;;4.63;;
43118;SDS011;28729;49.838;8.650;2023-05-10T06:31:03;7.07;;;4.30;;
43118;SDS011;28729;49.838;8.650;2023-05-10T06:35:05;9.15;;;5.30;;
43118;SDS011;28729;49.838;8.650;2023-05-10T06:39:09;7.90;;;4.57;;
43118;SDS011;28729;49.838;8.650;2023-05-10T06:43:13;6.10;;;3.95;;
43118;SDS011;28729;49.838;8.650;2023-05-10T06:47:15;12.43;;;5.13;;
43118;SDS011;28729;49.838;8.650;2023-05-10T06:51:18;10.13;;;4.75;;
43118;SDS011;28729;49.838;8.650;2023-05-10T06:55:21;8.88;;;5.05;;
43118;SDS011;28729;49.838;8.650;2023-05-10T06:59:23;9.43;;;5.10;;
43118;SDS011;28729;49.838;8.650;2023-05-10T07:03:25;10.63;;;4.57;;
43118;SDS011;28729;49.838;8.650;2023-05-10T07:07:27;9.77;;;5.45;;
43118;SDS011;28729;49.838;8.650;2023-05-10T07:11:29;6.63;;;4.57;;
43118;SDS011;28729;49.838;8.650;2023-05-10T07:15:30;9.27;;;4.95;;
43118;SDS011;28729;49.838;8.650;2023-05-10T07:19:32;12.05;;;4.70;;
43118;SDS011;28729;49.838;8.650;2023-05-10T07:23:34;7.13;;;4.30;;
43118;SDS011;28729;49.838;8.650;2023-05-10T07:27:36;8.23;;;4.47;;
43118;SDS011;28729;49.838;8.650;2023-05-10T07:31:37;7.90;;;4.20;;
43118;SDS011;28729;49.838;8.650;2023-05-10T07:35:39;6.88;;;4.07;;
43118;SDS011;28729;49.838;8.650;2023-05-10T07:39:41;5.97;;;3.80;;
43118;SDS011;28729;49.838;8.650;2023-05-10T07:43:43;6.88;;;3.90;;
43118;SDS011;28729;49.838;8.650;2023-05-10T07:47:45;4.57;;;3.03;;
43118;SDS011;28729;49.838;8.650;2023-05-10T07:51:47;5.33;;;3.17;;
43118;SDS011;28729;49.838;8.650;2023-05-10T07:55:53;4.67;;;3.20;;
43118;SDS011;28729;49.838;8.650;2023-05-10T08:00:00;6.15;;;3.50;;
43118;SDS011;28729;49.838;8.650;2023-05-10T08:04:02;5.10;;;3.30;;
43118;SDS011;28729;49.838;8.650;2023-05-10T08:08:04;4.00;;;2.90;;
43118;SDS011;28729;49.838;8.650;2023-05-10T08:12:06;3.90;;;2.70;;
43118;SDS011;28729;49.838;8.650;2023-05-10T08:16:07;5.70;;;2.90;;
43118;SDS011;28729;49.838;8.650;2023-05-10T08:20:09;5.57;;;3.13;;
43118;SDS011;28729;49.838;8.650;2023-05-10T08:24:11;5.30;;;3.13;;
43118;SDS011;28729;49.838;8.650;2023-05-10T08:28:13;4.45;;;3.13;;
43118;SDS011;28729;49.838;8.650;2023-05-10T08:32:15;4.10;;;2.75;;
43118;SDS011;28729;49.838;8.650;2023-05-10T08:36:16;4.80;;;2.80;;
43118;SDS011;28729;49.838;8.650;2023-05-10T08:40:23;4.35;;;2.63;;
43118;SDS011;28729;49.838;8.650;2023-05-10T08:44:27;4.07;;;2.80;;
43118;SDS011;28729;49.838;8.650;2023-05-10T08:48:33;5.78;;;3.05;;
43118;SDS011;28729;49.838;8.650;2023-05-10T08:52:36;6.15;;;2.78;;
43118;SDS011;28729;49.838;8.650;2023-05-10T08:56:42;4.38;;;2.80;;
43118;SDS011;28729;49.838;8.650;2023-05-10T09:00:43;4.13;;;2.50;;
43118;SDS011;28729;49.838;8.650;2023-05-10T09:04:45;4.70;;;2.80;;
43118;SDS011;28729;49.838;8.650;2023-05-10T09:08:48;3.63;;;2.22;;
43118;SDS011;28729;49.838;8.650;2023-05-10T09:12:50;4.32;;;2.05;;
43118;SDS011;28729;49.838;8.650;2023-05-10T09:16:53;2.85;;;1.65;;
43118;SDS011;28729;49.838;8.650;2023-05-10T09:20:56;2.58;;;1.40;;
43118;SDS011;28729;49.838;8.650;2023-05-10T09:29:13;7.05;;;1.40;;
43118;SDS011;28729;49.838;8.650;2023-05-10T09:33:18;4.75;;;1.20;;
43118;SDS011;28729;49.838;8.650;2023-05-10T09:37:19;3.42;;;0.80;;
43118;SDS011;28729;49.838;8.650;2023-05-10T09:41:30;2.15;;;0.95;;
43118;SDS011;28729;49.838;8.650;2023-05-10T09:45:33;2.22;;;1.00;;
43118;SDS011;28729;49.838;8.650;2023-05-10T09:49:39;3.17;;;1.13;;
43118;SDS011;28729;49.838;8.650;2023-05-10T09:53:42;4.82;;;1.02;;
43118;SDS011;28729;49.838;8.650;2023-05-10T09:57:44;2.75;;;0.95;;
43118;SDS011;28729;49.838;8.650;2023-05-10T10:05:54;3.75;;;1.10;;
43118;SDS011;28729;49.838;8.650;2023-05-10T10:10:04;2.13;;;0.85;;
43118;SDS011;28729;49.838;8.650;2023-05-10T10:14:10;4.68;;;2.17;;
43118;SDS011;28729;49.838;8.650;2023-05-10T10:18:13;4.90;;;1.05;;
43118;SDS011;28729;49.838;8.650;2023-05-10T10:22:22;2.30;;;1.00;;
43118;SDS011;28729;49.838;8.650;2023-05-10T10:26:23;5.35;;;1.08;;
43118;SDS011;28729;49.838;8.650;2023-05-10T10:34:34;2.22;;;0.85;;
43118;SDS011;28729;49.838;8.650;2023-05-10T10:38:57;1.73;;;1.00;;
43118;SDS011;28729;49.838;8.650;2023-05-10T10:43:21;4.28;;;0.98;;
43118;SDS011;28729;49.838;8.650;2023-05-10T10:47:28;1.23;;;0.70;;
43118;SDS011;28729;49.838;8.650;2023-05-10T10:51:32;3.83;;;0.90;;
43118;SDS011;28729;49.838;8.650;2023-05-10T10:55:34;2.92;;;1.52;;
43118;SDS011;28729;49.838;8.650;2023-05-10T10:59:35;1.90;;;0.93;;
43118;SDS011;28729;49.838;8.650;2023-05-10T11:03:41;2.20;;;0.80;;
43118;SDS011;28729;49.838;8.650;2023-05-10T11:08:19;3.10;;;1.05;;
43118;SDS011;28729;49.838;8.650;2023-05-10T11:12:27;1.50;;;1.10;;
43118;SDS011;28729;49.838;8.650;2023-05-10T11:16:40;1.60;;;1.10;;
43118;SDS011;28729;49.838;8.650;2023-05-10T11:21:20;2.17;;;1.00;;
43118;SDS011;28729;49.838;8.650;2023-05-10T11:25:25;4.25;;;1.05;;
43118;SDS011;28729;49.838;8.650;2023-05-10T11:29:28;1.98;;;1.00;;
43118;SDS011;28729;49.838;8.650;2023-05-10T11:33:30;1.87;;;0.90;;
43118;SDS011;28729;49.838;8.650;2023-05-10T11:37:31;3.20;;;1.02;;
43118;SDS011;28729;49.838;8.650;2023-05-10T11:41:35;4.05;;;0.90;;
43118;SDS011;28729;49.838;8.650;2023-05-10T11:45:37;2.38;;;0.70;;
43118;SDS011;28729;49.838;8.650;2023-05-10T11:49:42;2.50;;;1.10;;
43118;SDS011;28729;49.838;8.650;2023-05-10T11:53:45;4.55;;;0.90;;
43118;SDS011;28729;49.838;8.650;2023-05-10T11:57:47;1.63;;;0.83;;
43118;SDS011;28729;49.838;8.650;2023-05-10T12:01:48;1.50;;;1.33;;
43118;SDS011;28729;49.838;8.650;2023-05-10T12:05:50;7.07;;;0.70;;
43118;SDS011;28729;49.838;8.650;2023-05-10T12:10:02;1.67;;;0.60;;
43118;SDS011;28729;49.838;8.650;2023-05-10T12:14:09;0.93;;;0.60;;
43118;SDS011;28729;49.838;8.650;2023-05-10T12:18:12;3.05;;;1.20;;
43118;SDS011;28729;49.838;8.650;2023-05-10T12:22:15;2.53;;;0.98;;
43118;SDS011;28729;49.838;8.650;2023-05-10T12:26:17;1.73;;;0.93;;
43118;SDS011;28729;49.838;8.650;2023-05-10T12:30:22;3.10;;;1.33;;
43118;SDS011;28729;49.838;8.650;2023-05-10T12:34:32;4.20;;;0.77;;
43118;SDS011;28729;49.838;8.650;2023-05-10T12:38:38;2.65;;;0.93;;
43118;SDS011;28729;49.838;8.650;2023-05-10T12:42:44;5.63;;;1.00;;
43118;SDS011;28729;49.838;8.650;2023-05-10T12:46:46;2.35;;;1.00;;
43118;SDS011;28729;49.838;8.650;2023-05-10T12:50:48;2.10;;;0.93;;
43118;SDS011;28729;49.838;8.650;2023-05-10T12:54:50;2.67;;;0.85;;
43118;SDS011;28729;49.838;8.650;2023-05-10T12:58:51;2.30;;;0.90;;
43118;SDS011;28729;49.838;8.650;2023-05-10T13:02:53;1.97;;;1.10;;
43118;SDS011;28729;49.838;8.650;2023-05-10T13:06:55;6.88;;;1.98;;
43118;SDS011;28729;49.838;8.650;2023-05-10T13:11:02;1.88;;;1.08;;
43118;SDS011;28729;49.838;8.650;2023-05-10T13:15:04;3.72;;;1.00;;
43118;SDS011;28729;49.838;8.650;2023-05-10T13:19:08;4.57;;;1.05;;
43118;SDS011;28729;49.838;8.650;2023-05-10T13:23:10;4.30;;;1.13;;
43118;SDS011;28729;49.838;8.650;2023-05-10T13:27:11;3.00;;;1.10;;
43118;SDS011;28729;49.838;8.650;2023-05-10T13:31:13;5.27;;;0.97;;
43118;SDS011;28729;49.838;8.650;2023-05-10T13:35:15;4.13;;;1.15;;
43118;SDS011;28729;49.838;8.650;2023-05-10T13:39:17;4.33;;;1.10;;
43118;SDS011;28729;49.838;8.650;2023-05-10T13:43:19;4.50;;;1.10;;
43118;SDS011;28729;49.838;8.650;2023-05-10T13:47:23;5.53;;;1.10;;
43118;SDS011;28729;49.838;8.650;2023-05-10T13:51:24;1.83;;;1.10;;
43118;SDS011;28729;49.838;8.650;2023-05-10T13:55:28;3.40;;;1.50;;
43118;SDS011;28729;49.838;8.650;2023-05-10T13:59:30;3.80;;;0.90;;
43118;SDS011;28729;49.838;8.650;2023-05-10T14:03:33;0.77;;;0.60;;
43118;SDS011;28729;49.838;8.650;2023-05-10T14:11:37;2.40;;;0.95;;
43118;SDS011;28729;49.838;8.650;2023-05-10T14:15:43;2.13;;;0.80;;
43118;SDS011;28729;49.838;8.650;2023-05-10T14:19:44;2.58;;;1.05;;
43118;SDS011;28729;49.838;8.650;2023-05-10T14:23:46;2.13;;;0.90;;
43118;SDS011;28729;49.838;8.650;2023-05-10T14:27:48;3.97;;;0.80;;
43118;SDS011;28729;49.838;8.650;2023-05-10T14:31:50;2.90;;;0.85;;
43118;SDS011;28729;49.838;8.650;2023-05-10T14:35:53;3.47;;;0.90;;
43118;SDS011;28729;49.838;8.650;2023-05-10T14:39:56;6.82;;;1.45;;
43118;SDS011;28729;49.838;8.650;2023-05-10T14:43:58;4.88;;;1.00;;
43118;SDS011;28729;49.838;8.650;2023-05-10T14:48:00;4.50;;;0.80;;
43118;SDS011;28729;49.838;8.650;2023-05-10T14:52:01;2.78;;;1.10;;
43118;SDS011;28729;49.838;8.650;2023-05-10T14:56:06;5.57;;;1.08;;
43118;SDS011;28729;49.838;8.650;2023-05-10T15:04:12;3.63;;;0.80;;
43118;SDS011;28729;49.838;8.650;2023-05-10T15:08:15;4.38;;;0.93;;
43118;SDS011;28729;49.838;8.650;2023-05-10T15:12:17;6.60;;;2.40;;
43118;SDS011;28729;49.838;8.650;2023-05-10T15:16:19;3.78;;;0.73;;
43118;SDS011;28729;49.838;8.650;2023-05-10T15:20:21;8.00;;;1.00;;
43118;SDS011;28729;49.838;8.650;2023-05-10T15:24:23;2.57;;;0.90;;
43118;SDS011;28729;49.838;8.650;2023-05-10T15:28:27;4.00;;;1.93;;
43118;SDS011;28729;49.838;8.650;2023-05-10T15:32:28;2.85;;;1.00;;
43118;SDS011;28729;49.838;8.650;2023-05-10T15:36:31;3.83;;;0.80;;
43118;SDS011;28729;49.838;8.650;2023-05-10T15:44:36;2.38;;;0.80;;
43118;SDS011;28729;49.838;8.650;2023-05-10T15:48:39;2.42;;;0.80;;
43118;SDS011;28729;49.838;8.650;2023-05-10T15:52:41;4.35;;;0.80;;
43118;SDS011;28729;49.838;8.650;2023-05-10T15:56:43;5.40;;;0.83;;
43118;SDS011;28729;49.838;8.650;2023-05-10T16:00:44;3.30;;;0.80;;
43118;SDS011;28729;49.838;8.650;2023-05-10T16:04:46;2.10;;;0.70;;
43118;SDS011;28729;49.838;8.650;2023-05-10T16:08:50;2.03;;;0.90;;
43118;SDS011;28729;49.838;8.650;2023-05-10T16:12:54;2.00;;;0.70;;
43118;SDS011;28729;49.838;8.650;2023-05-10T16:16:56;4.03;;;0.90;;
43118;SDS011;28729;49.838;8.650;2023-05-10T16:20:58;0.98;;;0.70;;
43118;SDS011;28729;49.838;8.650;2023-05-10T16:29:02;1.23;;;0.60;;
43118;SDS011;28729;49.838;8.650;2023-05-10T16:33:04;3.50;;;0.73;;
43118;SDS011;28729;49.838;8.650;2023-05-10T16:37:06;1.90;;;0.77;;
43118;SDS011;28729;49.838;8.650;2023-05-10T16:41:10;3.00;;;1.30;;
43118;SDS011;28729;49.838;8.650;2023-05-10T16:45:11;3.83;;;1.10;;
43118;SDS011;28729;49.838;8.650;2023-05-10T16:49:13;1.65;;;0.80;;
43118;SDS011;28729;49.838;8.650;2023-05-10T16:53:15;2.10;;;0.70;;
43118;SDS011;28729;49.838;8.650;2023-05-10T16:57:17;1.42;;;0.63;;
43118;SDS011;28729;49.838;8.650;2023-05-10T17:01:19;2.58;;;0.82;;
43118;SDS011;28729;49.838;8.650;2023-05-10T17:05:23;2.20;;;0.70;;
43118;SDS011;28729;49.838;8.650;2023-05-10T17:09:24;3.27;;;1.00;;
43118;SDS011;28729;49.838;8.650;2023-05-10T17:13:26;1.77;;;0.68;;
43118;SDS011;28729;49.838;8.650;2023-05-10T17:17:28;0.53;;;0.40;;
43118;SDS011;28729;49.838;8.650;2023-05-10T17:21:30;3.87;;;0.80;;
43118;SDS011;28729;49.838;8.650;2023-05-10T17:25:33;1.30;;;0.60;;
43118;SDS011;28729;49.838;8.650;2023-05-10T17:29:35;2.90;;;0.70;;
43118;SDS011;28729;49.838;8.650;2023-05-10T17:33:37;2.20;;;0.70;;
43118;SDS011;28729;49.838;8.650;2023-05-10T17:37:39;0.90;;;0.60;;
43118;SDS011;28729;49.838;8.650;2023-05-10T17:41:41;4.20;;;0.80;;
43118;SDS011;28729;49.838;8.650;2023-05-10T17:45:46;2.78;;;0.80;;
43118;SDS011;28729;49.838;8.650;2023-05-10T17:49:48;1.38;;;0.60;;
43118;SDS011;28729;49.838;8.650;2023-05-10T17:53:50;3.17;;;0.50;;
43118;SDS011;28729;49.838;8.650;2023-05-10T17:57:52;2.60;;;0.70;;
43118;SDS011;28729;49.838;8.650;2023-05-10T18:01:54;1.35;;;0.82;;
43118;SDS011;28729;49.838;8.650;2023-05-10T18:05:56;1.30;;;0.50;;
43118;SDS011;28729;49.838;8.650;2023-05-10T18:09:58;1.50;;;0.60;;
43118;SDS011;28729;49.838;8.650;2023-05-10T18:14:01;1.27;;;0.70;;
43118;SDS011;28729;49.838;8.650;2023-05-10T18:18:03;1.42;;;0.70;;
43118;SDS011;28729;49.838;8.650;2023-05-10T18:22:07;1.58;;;0.60;;
43118;SDS011;28729;49.838;8.650;2023-05-10T18:26:11;2.08;;;0.95;;
43118;SDS011;28729;49.838;8.650;2023-05-10T18:30:13;2.65;;;0.60;;
43118;SDS011;28729;49.838;8.650;2023-05-10T18:34:15;2.50;;;0.80;;
43118;SDS011;28729;49.838;8.650;2023-05-10T18:38:17;1.75;;;0.90;;
43118;SDS011;28729;49.838;8.650;2023-05-10T18:42:19;2.22;;;0.80;;
43118;SDS011;28729;49.838;8.650;2023-05-10T18:46:21;7.50;;;1.25;;
43118;SDS011;28729;49.838;8.650;2023-05-10T18:50:23;6.60;;;1.55;;
43118;SDS011;28729;49.838;8.650;2023-05-10T18:54:25;6.88;;;1.50;;
43118;SDS011;28729;49.838;8.650;2023-05-10T18:58:27;5.83;;;1.33;;
43118;SDS011;28729;49.838;8.650;2023-05-10T19:02:29;2.47;;;1.15;;
43118;SDS011;28729;49.838;8.650;2023-05-10T19:06:31;3.27;;;0.80;;
43118;SDS011;28729;49.838;8.650;2023-05-10T19:10:34;2.75;;;0.70;;
43118;SDS011;28729;49.838;8.650;2023-05-10T19:14:36;3.53;;;1.20;;
43118;SDS011;28729;49.838;8.650;2023-05-10T19:18:38;4.00;;;1.00;;
43118;SDS011;28729;49.838;8.650;2023-05-10T19:22:41;2.55;;;1.05;;
43118;SDS011;28729;49.838;8.650;2023-05-10T19:27:03;4.25;;;1.30;;
43118;SDS011;28729;49.838;8.650;2023-05-10T19:31:05;3.60;;;1.45;;
43118;SDS011;28729;49.838;8.650;2023-05-10T19:35:08;3.58;;;0.90;;
43118;SDS011;28729;49.838;8.650;2023-05-10T19:39:11;6.03;;;1.33;;
43118;SDS011;28729;49.838;8.650;2023-05-10T19:43:13;4.88;;;1.35;;
43118;SDS011;28729;49.838;8.650;2023-05-10T19:47:15;4.60;;;0.90;;
43118;SDS011;28729;49.838;8.650;2023-05-10T19:51:17;5.15;;;1.45;;
43118;SDS011;28729;49.838;8.650;2023-05-10T19:55:26;3.95;;;1.20;;
43118;SDS011;28729;49.838;8.650;2023-05-10T19:59:30;4.00;;;1.10;;
43118;SDS011;28729;49.838;8.650;2023-05-10T20:03:32;1.48;;;1.02;;
43118;SDS011;28729;49.838;8.650;2023-05-10T20:07:35;5.65;;;1.10;;
43118;SDS011;28729;49.838;8.650;2023-05-10T20:11:37;6.00;;;1.15;;
43118;SDS011;28729;49.838;8.650;2023-05-10T20:15:39;1.27;;;0.80;;
43118;SDS011;28729;49.838;8.650;2023-05-10T20:19:41;3.10;;;0.82;;
43118;SDS011;28729;49.838;8.650;2023-05-10T20:23:43;2.05;;;0.90;;
43118;SDS011;28729;49.838;8.650;2023-05-10T20:27:44;2.38;;;1.13;;
43118;SDS011;28729;49.838;8.650;2023-05-10T20:31:49;1.63;;;1.10;;
43118;SDS011;28729;49.838;8.650;2023-05-10T20:35:52;7.07;;;1.67;;
43118;SDS011;28729;49.838;8.650;2023-05-10T20:39:53;3.22;;;1.45;;
43118;SDS011;28729;49.838;8.650;2023-05-10T20:43:57;4.25;;;1.50;;
43118;SDS011;28729;49.838;8.650;2023-05-10T20:48:00;2.15;;;1.30;;
43118;SDS011;28729;49.838;8.650;2023-05-10T20:52:03;2.17;;;1.30;;
43118;SDS011;28729;49.838;8.650;2023-05-10T20:56:05;2.07;;;1.20;;
43118;SDS011;28729;49.838;8.650;2023-05-10T21:00:09;4.55;;;1.45;;
43118;SDS011;28729;49.838;8.650;2023-05-10T21:04:11;3.03;;;1.20;;
43118;SDS011;28729;49.838;8.650;2023-05-10T21:08:13;2.63;;;1.40;;
43118;SDS011;28729;49.838;8.650;2023-05-10T21:12:15;2.60;;;1.30;;
43118;SDS011;28729;49.838;8.650;2023-05-10T21:16:17;3.85;;;1.50;;
43118;SDS011;28729;49.838;8.650;2023-05-10T21:20:19;4.80;;;1.50;;
43118;SDS011;28729;49.838;8.650;2023-05-10T21:24:21;7.27;;;1.40;;
43118;SDS011;28729;49.838;8.650;2023-05-10T21:28:23;4.00;;;1.30;;
43118;SDS011;28729;49.838;8.650;2023-05-10T21:32:25;3.88;;;1.40;;
43118;SDS011;28729;49.838;8.650;2023-05-10T21:36:27;7.65;;;1.48;;
43118;SDS011;28729;49.838;8.650;2023-05-10T21:40:29;8.38;;;1.60;;
43118;SDS011;28729;49.838;8.650;2023-05-10T21:44:34;6.70;;;1.58;;
43118;SDS011;28729;49.838;8.650;2023-05-10T21:48:38;2.40;;;1.20;;
43118;SDS011;28729;49.838;8.650;2023-05-10T21:52:39;2.35;;;1.30;;
43118;SDS011;28729;49.838;8.650;2023-05-10T21:56:41;3.80;;;1.30;;
43118;SDS011;28729;49.838;8.650;2023-05-10T22:00:43;3.13;;;0.90;;
43118;SDS011;28729;49.838;8.650;2023-05-10T22:04:45;2.63;;;1.27;;
43118;SDS011;28729;49.838;8.650;2023-05-10T22:08:47;3.10;;;1.30;;
43118;SDS011;28729;49.838;8.650;2023-05-10T22:12:49;3.63;;;1.33;;
43118;SDS011;28729;49.838;8.650;2023-05-10T22:16:52;3.05;;;1.40;;
43118;SDS011;28729;49.838;8.650;2023-05-10T22:20:53;1.83;;;1.15;;
43118;SDS011;28729;49.838;8.650;2023-05-10T22:24:55;3.22;;;1.10;;
43118;SDS011;28729;49.838;8.650;2023-05-10T22:28:57;3.60;;;1.00;;
43118;SDS011;28729;49.838;8.650;2023-05-10T22:32:59;2.85;;;1.00;;
43118;SDS011;28729;49.838;8.650;2023-05-10T22:37:01;1.80;;;1.00;;
43118;SDS011;28729;49.838;8.650;2023-05-10T22:41:04;2.13;;;0.90;;
43118;SDS011;28729;49.838;8.650;2023-05-10T22:45:06;2.83;;;1.05;;
43118;SDS011;28729;49.838;8.650;2023-05-10T22:49:08;3.30;;;0.90;;
43118;SDS011;28729;49.838;8.650;2023-05-10T22:53:10;1.42;;;0.70;;
43118;SDS011;28729;49.838;8.650;2023-05-10T22:57:12;2.20;;;0.77;;
43118;SDS011;28729;49.838;8.650;2023-05-10T23:01:14;3.37;;;0.93;;
43118;SDS011;28729;49.838;8.650;2023-05-10T23:05:16;1.87;;;1.17;;
43118;SDS011;28729;49.838;8.650;2023-05-10T23:09:18;1.48;;;1.00;;
43118;SDS011;28729;49.838;8.650;2023-05-10T23:13:19;2.47;;;0.95;;
43118;SDS011;28729;49.838;8.650;2023-05-10T23:17:22;2.45;;;1.00;;
43118;SDS011;28729;49.838;8.650;2023-05-10T23:21:23;3.50;;;0.88;;
43118;SDS011;28729;49.838;8.650;2023-05-10T23:25:25;3.72;;;1.08;;
43118;SDS011;28729;49.838;8.650;2023-05-10T23:29:27;4.28;;;1.08;;
43118;SDS011;28729;49.838;8.650;2023-05-10T23:33:29;3.72;;;1.05;;
43118;SDS011;28729;49.838;8.650;2023-05-10T23:37:31;5.05;;;1.15;;
43118;SDS011;28729;49.838;8.650;2023-05-10T23:41:33;2.30;;;1.05;;
43118;SDS011;28729;49.838;8.650;2023-05-10T23:45:34;2.97;;;1.07;;
43118;SDS011;28729;49.838;8.650;2023-05-10T23:49:38;4.80;;;1.40;;
43118;SDS011;28729;49.838;8.650;2023-05-10T23:53:42;3.08;;;0.90;;
43118;SDS011;28729;49.838;8.650;2023-05-10T23:57:44;6.00;;;1.52;;
